Latest Weather Observations for Edinburgh

IDS60801

Issued at 5:01 am CDT Friday 24 November 2017 (issued every 30 minutes, with the page automatically refreshed every 10 minutes)

About weather observations | Map of weather stations | Latest weather observations for SA | Other Formats
Station Details ID: 023083 Name: EDINBURGH RAAF Lat: -34.71 Lon: 138.62 Height: 16.54 m
Data from the previous 72 hours. | See also: Recent months at Edinburgh
Date/Time
CDT
Temp
°C
App
Temp
°C
Dew
Point
°C
Rel
Hum
%
Delta-T
°C
Wind Press
QNH
hPa
Press
MSL
hPa
Rain since
9am
mm
Dir  Spd
km/h
Gust
km/h
Spd
kts
Gust
kts
24/05:00am 16.1 17.3 13.8 86 1.3 CALM 0 0 0 0 1010.7 1010.6 1.0
24/04:30am 16.6 17.2 14.2 86 1.4 E 4 6 2 3 1010.6 1010.5 1.0
24/04:00am 16.8 16.6 13.7 82 1.8 ENE 7 11 4 6 1010.7 1010.6 1.0
24/03:30am 17.2 18.1 15.0 87 1.3 ENE 4 9 2 5 1010.5 1010.4 1.0
24/03:00am 17.9 17.5 15.2 84 1.6 NNW 11 13 6 7 1010.8 1010.7 1.0
24/02:30am 19.0 19.2 14.3 74 2.7 ESE 6 9 3 5 1010.8 1010.7 1.0
24/02:00am 18.9 18.7 14.8 77 2.4 ENE 9 11 5 6 1011.1 1011.0 1.0
24/01:30am 18.2 17.8 15.3 83 1.7 NE 11 15 6 8 1011.5 1011.4 1.0
24/01:00am 18.4 18.4 15.3 82 1.8 NE 9 11 5 6 1011.6 1011.5 1.0
24/12:30am 18.2 19.0 14.9 81 1.9 ENE 4 9 2 5 1011.6 1011.5 1.0
24/12:00am 17.6 19.0 14.5 82 1.8 CALM 0 0 0 0 1011.8 1011.7 1.0
 
Date/Time
CDT
Temp
°C
App
Temp
°C
Dew
Point
°C
Rel
Hum
%
Delta-T
°C
Wind Press
QNH
hPa
Press
MSL
hPa
Rain since
9am
mm
Dir  Spd
km/h
Gust
km/h
Spd
kts
Gust
kts
23/11:30pm 17.9 19.2 14.2 79 2.1 CALM 0 0 0 0 1011.8 1011.7 1.0
23/11:00pm 18.2 19.6 14.3 78 2.2 CALM 0 0 0 0 1011.5 1011.4 1.0
23/10:30pm 19.6 19.9 14.4 72 3.0 ESE 6 9 3 5 1011.5 1011.4 1.0
23/10:00pm 19.8 20.0 14.6 72 3.0 SE 7 11 4 6 1011.2 1011.1 1.0
23/09:30pm 19.8 19.6 14.8 73 2.9 SE 9 13 5 7 1010.8 1010.7 1.0
23/09:00pm 19.8 19.3 14.8 73 2.9 S 11 15 6 8 1010.7 1010.6 1.0
23/08:30pm 20.0 18.8 15.0 73 2.9 SW 15 20 8 11 1010.5 1010.4 1.0
23/08:00pm 20.1 18.1 14.9 72 3.1 SW 19 22 10 12 1010.0 1009.9 1.0
23/07:30pm 21.8 20.8 14.7 64 4.2 SW 13 30 7 16 1009.9 1009.8 1.0
23/07:00pm 24.4 22.6 13.3 50 6.5 E 15 24 8 13 1009.1 1009.0 1.0
23/06:30pm 24.5 21.0 13.4 50 6.5 E 24 35 13 19 1008.2 1008.2 1.0
23/06:00pm 23.3 19.9 13.8 55 5.6 ENE 24 33 13 18 1008.4 1008.4 1.0
23/05:30pm 23.7 18.9 14.1 55 5.7 NE 32 37 17 20 1009.3 1009.2 1.0
23/05:00pm 23.4 20.1 14.1 56 5.5 NNE 24 30 13 16 1009.2 1009.1 1.0
23/04:30pm 23.8 19.7 12.8 50 6.3 N 26 41 14 22 1009.3 1009.2 1.0
23/04:00pm 24.7 21.7 12.0 45 7.2 NNE 19 30 10 16 1009.2 1009.1 1.0
23/03:30pm 23.9 22.1 15.4 59 5.1 ENE 19 24 10 13 1009.6 1009.5 1.0
23/03:00pm 21.9 21.3 14.5 63 4.4 ENE 11 17 6 9 1010.1 1010.0 1.0
23/02:30pm 20.1 19.0 14.2 69 3.4 E 13 19 7 10 1010.9 1010.8 1.0
23/02:00pm 19.6 19.1 15.9 79 2.2 ESE 13 15 7 8 1011.4 1011.3 1.0
23/01:30pm 19.0 17.7 14.9 77 2.4 WSW 15 20 8 11 1012.0 1011.9 0.4
23/01:00pm 21.3 18.2 13.5 61 4.5 WNW 22 30 12 16 1012.5 1012.4 0.2
23/12:30pm 21.7 21.3 16.2 71 3.3 SSW 13 20 7 11 1012.0 1011.9 0.2
23/12:26pm 21.6 21.1 16.8 74 2.9 SW 15 22 8 12 1011.9 1011.8 0.2
23/12:00pm 19.8 18.6 17.0 84 1.7 W 19 28 10 15 1012.5 1012.4 0.2
23/11:57am 20.0 19.2 17.2 84 1.7 W 17 20 9 11 1012.5 1012.4 0.2
23/11:30am 20.1 19.8 17.3 84 1.7 WSW 15 24 8 13 1012.2 1012.1 0.2
23/11:00am 21.1 19.8 15.9 72 3.1 WNW 17 22 9 12 1012.0 1011.9 0.0
23/10:30am 22.0 21.7 16.5 71 3.3 NNW 13 19 7 10 1011.6 1011.5 0.0
23/10:00am 21.7 21.2 16.0 70 3.4 NNW 13 17 7 9 1011.1 1011.0 0.0
23/09:30am 20.8 18.7 16.2 75 2.8 NW 22 32 12 17 1010.9 1010.8 0.0
23/09:00am 21.4 21.7 15.9 71 3.3 NNE 9 15 5 8 1009.7 1009.6 3.8
23/08:30am 21.2 21.4 15.7 71 3.3 NNE 9 11 5 6 1009.3 1009.2 3.8
23/08:00am 20.6 20.5 16.0 75 2.8 NNE 11 13 6 7 1009.1 1009.0 3.8
23/07:30am 19.9 20.0 15.5 76 2.6 E 9 13 5 7 1008.8 1008.7 3.8
23/07:00am 19.4 19.1 15.5 78 2.3 ENE 11 17 6 9 1008.7 1008.6 3.8
23/06:30am 17.8 17.0 16.0 89 1.1 NNE 15 24 8 13 1008.8 1008.7 3.8
23/06:00am 18.0 18.1 15.6 86 1.4 W 9 17 5 9 1007.7 1007.7 3.8
23/05:30am 19.2 19.9 15.5 79 2.2 SE 6 9 3 5 1007.2 1007.2 3.8
23/05:00am 19.9 20.3 15.3 75 2.7 ESE 7 9 4 5 1007.4 1007.4 3.8
23/04:30am 19.7 19.2 15.8 78 2.3 ESE 13 15 7 8 1007.6 1007.6 3.8
23/04:00am 19.4 19.8 16.2 82 1.9 NE 9 11 5 6 1008.5 1008.5 3.6
23/03:30am 19.7 17.8 15.8 78 2.3 NNE 20 28 11 15 1009.2 1009.1 3.6
23/03:00am 19.6 20.2 16.8 84 1.7 N 9 13 5 7 1009.0 1008.9 3.6
23/02:30am 19.7 20.1 16.3 81 2.0 NW 9 15 5 8 1008.7 1008.6 3.6
23/02:00am 20.6 19.8 15.2 71 3.2 ENE 13 19 7 10 1008.7 1008.6 3.2
23/01:30am 20.5 20.0 15.9 75 2.8 NE 13 20 7 11 1008.9 1008.8 2.8
23/01:00am 20.7 20.3 16.1 75 2.8 E 13 15 7 8 1008.4 1008.4 2.6
23/12:30am 20.5 20.4 16.1 76 2.6 NNE 11 19 6 10 1009.2 1009.1 1.6
23/12:00am 20.1 19.3 16.1 78 2.4 NE 15 20 8 11 1008.8 1008.7 1.6
 
Date/Time
CDT
Temp
°C
App
Temp
°C
Dew
Point
°C
Rel
Hum
%
Delta-T
°C
Wind Press
QNH
hPa
Press
MSL
hPa
Rain since
9am
mm
Dir  Spd
km/h
Gust
km/h
Spd
kts
Gust
kts
22/11:30pm 19.8 20.8 16.8 83 1.8 WSW 7 11 4 6 1008.4 1008.4 1.6
22/11:00pm 20.4 21.1 16.0 76 2.6 SW 7 11 4 6 1008.7 1008.6 1.6
22/10:30pm 21.1 18.8 14.7 67 3.8 ESE 20 33 11 18 1009.0 1008.9 1.6
22/10:00pm 20.4 18.1 14.7 70 3.3 E 20 39 11 21 1010.4 1010.3 1.2
22/09:30pm 20.2 18.4 15.4 74 2.8 NNE 19 24 10 13 1011.4 1011.3 0.0
22/09:00pm 22.4 23.2 13.7 58 5.1 NW 2 9 1 5 1011.2 1011.1 0.0
22/08:30pm 22.3 20.8 14.2 60 4.7 NW 15 22 8 12 1011.3 1011.2 0.0
22/08:00pm 22.3 20.3 15.4 65 4.1 NNW 20 32 11 17 1011.5 1011.4 0.0
22/07:30pm 24.5 22.6 13.1 49 6.6 SW 15 20 8 11 1010.2 1010.1 0.0
22/07:00pm 25.2 21.9 12.8 46 7.2 W 22 28 12 15 1010.0 1009.9 0.0
22/06:30pm 27.5 23.0 10.2 34 9.7 SW 24 30 13 16 1008.7 1008.6 0.0
22/06:00pm 28.4 25.0 9.2 30 10.6 SW 17 22 9 12 1008.9 1008.8 0.0
22/05:30pm 28.9 24.5 9.1 29 11.0 SSW 22 28 12 15 1008.4 1008.4 0.0
22/05:00pm 29.7 24.8 9.8 29 11.2 SSW 26 33 14 18 1008.3 1008.3 0.0
22/04:30pm 29.0 23.9 10.6 32 10.5 SSW 28 33 15 18 1008.5 1008.5 0.0
22/04:00pm 28.5 22.4 9.7 31 10.5 S 32 39 17 21 1009.0 1008.9 0.0
22/03:30pm 29.2 23.3 10.3 31 10.7 SSW 32 37 17 20 1009.5 1009.4 0.0
22/03:00pm 28.3 23.7 9.6 31 10.4 SW 24 35 13 19 1010.0 1009.9 0.0
22/02:30pm 27.4 22.6 8.8 31 10.2 SSW 24 32 13 17 1009.9 1009.8 0.0
22/02:00pm 27.2 21.3 11.3 37 9.1 WSW 33 43 18 23 1009.8 1009.7 0.0
22/01:57pm 27.2 20.8 10.8 36 9.3 WSW 35 43 19 23 1009.8 1009.7 0.0
22/01:30pm 29.8 21.5 9.3 28 11.5 W 43 57 23 31 1009.5 1009.4 0.0
22/01:19pm 30.5 22.4 7.0 23 12.7 WNW 39 63 21 34 1009.3 1009.2 0.0
22/01:00pm 32.7 25.6 5.3 18 14.6 WNW 32 43 17 23 1009.4 1009.3 0.0
22/12:30pm 32.0 26.7 7.0 21 13.6 W 24 37 13 20 1009.7 1009.6 0.0
22/12:00pm 33.6 27.9 6.8 19 14.7 W 26 33 14 18 1009.7 1009.6 0.0
22/11:30am 34.4 29.1 3.1 14 16.2 N 20 33 11 18 1010.1 1010.0 0.0
22/11:00am 34.3 27.9 3.0 14 16.2 NNW 26 39 14 21 1010.4 1010.3 0.0
22/10:30am 34.2 27.2 1.9 13 16.4 NNE 28 35 15 19 1010.5 1010.4 0.0
22/10:00am 33.6 26.3 2.4 14 15.9 N 30 43 16 23 1010.6 1010.5 0.0
22/09:30am 33.2 25.5 2.1 14 15.7 NNE 32 43 17 23 1010.8 1010.7 0.0
22/09:00am 32.3 25.2 1.4 14 15.4 NNE 28 43 15 23 1011.0 1010.9 0.0
22/08:30am 30.4 24.8 3.4 18 13.7 NE 22 30 12 16 1011.1 1011.0 0.0
22/08:00am 28.8 23.4 4.3 21 12.5 NNE 22 28 12 15 1011.0 1010.9 0.0
22/07:30am 27.5 22.0 3.9 22 11.9 NE 22 28 12 15 1010.8 1010.7 0.0
22/07:00am 26.3 20.7 3.5 23 11.3 NE 22 32 12 17 1010.5 1010.4 0.0
22/06:30am 25.2 19.6 3.2 24 10.8 NE 22 28 12 15 1010.3 1010.2 0.0
22/06:00am 25.0 18.9 3.0 24 10.7 NE 24 30 13 16 1010.0 1009.9 0.0
22/05:30am 25.0 19.4 3.6 25 10.5 NE 22 28 12 15 1009.9 1009.8 0.0
22/05:00am 24.8 19.3 4.0 26 10.3 NE 22 33 12 18 1009.8 1009.7 0.0
22/04:30am 24.8 18.9 4.0 26 10.3 NE 24 28 13 15 1009.8 1009.7 0.0
22/04:00am 25.3 19.4 3.9 25 10.6 NE 24 30 13 16 1009.8 1009.7 0.0
22/03:30am 25.3 20.2 3.9 25 10.6 NE 20 26 11 14 1009.8 1009.7 0.0
22/03:00am 25.8 19.9 3.7 24 11.0 NE 24 32 13 17 1009.9 1009.8 0.0
22/02:30am 26.2 21.1 4.1 24 11.1 NE 20 28 11 15 1009.9 1009.8 0.0
22/02:00am 26.7 21.2 3.9 23 11.4 NE 22 28 12 15 1010.1 1010.0 0.0
22/01:30am 27.0 21.0 3.5 22 11.7 NE 24 33 13 18 1010.3 1010.2 0.0
22/01:00am 27.8 21.8 3.5 21 12.2 NE 24 30 13 16 1010.6 1010.5 0.0
22/12:30am 27.7 22.9 2.7 20 12.3 ENE 17 22 9 12 1010.8 1010.7 0.0
22/12:00am 27.2 22.7 2.3 20 12.2 ENE 15 19 8 10 1010.8 1010.7 0.0
 
Date/Time
CDT
Temp
°C
App
Temp
°C
Dew
Point
°C
Rel
Hum
%
Delta-T
°C
Wind Press
QNH
hPa
Press
MSL
hPa
Rain since
9am
mm
Dir  Spd
km/h
Gust
km/h
Spd
kts
Gust
kts
21/11:30pm 26.8 22.8 2.7 21 11.8 ENE 13 15 7 8 1011.0 1010.9 0.0
21/11:00pm 26.9 23.0 3.4 22 11.7 ENE 13 17 7 9 1011.2 1011.1 0.0
21/10:30pm 25.9 22.0 3.2 23 11.2 NE 13 15 7 8 1011.4 1011.3 0.0
21/10:00pm 28.9 24.9 3.0 19 12.9 E 13 17 7 9 1011.4 1011.3 0.0
21/09:30pm 29.7 25.6 2.1 17 13.7 E 13 19 7 10 1011.3 1011.2 0.0
21/09:00pm 29.9 26.0 1.4 16 13.9 ENE 11 15 6 8 1011.0 1010.9 0.0
21/08:30pm 30.4 26.1 0.9 15 14.4 ENE 13 17 7 9 1010.9 1010.8 0.0
21/08:00pm 31.8 26.6 0.0 13 15.4 NE 17 20 9 11 1010.7 1010.6 0.0
21/07:30pm 33.3 27.5 0.1 12 16.3 NE 20 26 11 14 1010.6 1010.5 0.0
21/07:00pm 34.1 27.5 -0.5 11 16.9 NE 24 32 13 17 1010.3 1010.2 0.0
21/06:30pm 34.4 28.4 0.9 12 16.7 NE 22 33 12 18 1010.2 1010.1 0.0
21/06:00pm 35.3 29.2 0.4 11 17.4 NNE 22 39 12 21 1010.2 1010.1 0.0
21/05:30pm 35.2 28.5 1.5 12 17.1 NE 26 35 14 19 1010.3 1010.2 0.0
21/05:16pm 35.1 27.6 1.5 12 17.0 NE 30 48 16 26 1010.4 1010.3 0.0
21/05:13pm 35.5 28.3 0.6 11 17.5 NE 28 43 15 23 1010.4 1010.3 0.0
21/05:00pm 35.4 30.5 1.7 12 17.2 ENE 17 24 9 13 1010.4 1010.3 0.0
21/04:30pm 35.7 29.5 1.9 12 17.3 ENE 24 39 13 21 1010.6 1010.5 0.0
21/04:00pm 35.3 30.1 2.7 13 16.8 NE 19 32 10 17 1010.8 1010.7 0.0
21/03:30pm 35.5 29.0 2.9 13 16.9 NE 26 48 14 26 1011.1 1011.0 0.0
21/03:00pm 36.2 30.6 3.4 13 17.2 NE 22 37 12 20 1011.5 1011.4 0.0
21/02:30pm 35.0 29.2 2.5 13 16.7 NE 22 39 12 21 1011.9 1011.8 0.0
21/02:00pm 34.7 29.5 3.3 14 16.3 NE 20 35 11 19 1012.2 1012.1 0.0
21/01:30pm 34.8 27.3 3.4 14 16.4 NE 32 43 17 23 1012.6 1012.5 0.0
21/01:00pm 34.8 28.4 3.4 14 16.4 NE 26 37 14 20 1013.2 1013.1 0.0
21/12:42pm 34.5 27.9 4.1 15 16.0 NE 28 46 15 25 1013.4 1013.3 0.0
21/12:30pm 34.4 28.5 4.0 15 16.0 NE 24 37 13 20 1013.5 1013.4 0.0
21/12:11pm 34.8 28.2 4.4 15 16.1 NE 28 50 15 27 1013.7 1013.6 0.0
21/12:00pm 34.3 27.1 4.9 16 15.6 NE 32 43 17 23 1013.8 1013.7 0.0
21/11:30am 33.5 26.7 5.1 17 15.1 NE 30 43 16 23 1014.4 1014.3 0.0
21/11:00am 33.6 26.6 6.0 18 14.9 NNE 32 44 17 24 1014.4 1014.3 0.0
21/10:30am 33.2 26.1 5.7 18 14.7 NNE 32 43 17 23 1014.6 1014.5 0.0
21/10:24am 33.2 26.1 6.5 19 14.5 NNE 33 52 18 28 1014.6 1014.5 0.0
21/10:00am 33.0 26.2 7.1 20 14.2 NNE 32 43 17 23 1014.6 1014.5 0.0
21/09:30am 31.4 24.5 6.5 21 13.4 NE 32 41 17 22 1014.7 1014.6 0.0
21/09:00am 29.5 23.2 7.4 25 11.9 NNE 30 39 16 21 1014.9 1014.8 0.0
21/08:30am 27.8 21.2 7.6 28 10.8 NE 32 39 17 21 1014.9 1014.8 0.0
21/08:00am 26.8 20.6 7.8 30 10.2 NE 30 39 16 21 1014.7 1014.6 0.0
21/07:30am 26.2 19.9 7.3 30 10.0 NE 30 37 16 20 1014.6 1014.5 0.0
21/07:00am 25.6 18.9 7.2 31 9.7 NE 32 41 17 22 1014.5 1014.4 0.0
21/06:30am 25.2 18.9 7.3 32 9.4 NE 30 39 16 21 1014.2 1014.1 0.0
21/06:00am 25.0 18.7 7.2 32 9.3 NE 30 41 16 22 1014.0 1013.9 0.0
21/05:30am 25.3 18.9 7.0 31 9.6 NE 30 39 16 21 1013.7 1013.6 0.0

Other Formats:

Comma delimited format used in spreadsheet applications
http://www.bom.gov.au/fwo/IDS60801/IDS60801.95676.axf

JavaScript Object Notation format (JSON) in row-major order
http://www.bom.gov.au/fwo/IDS60801/IDS60801.95676.json